Time;durP1;ratioP1;P1;durP2;ratioP2;P2;SDS_P1;SDS_P2;PMS_P1;PMS_P2;Temp;Humidity;BMP_temperature;BMP_pressure;BME280_temperature;BME280_humidity;BME280_pressure;Samples;Min_cycle;Max_cycle;Signal;HPM_P1;HPM_P2
2022/08/22 00:01:16;;;;;;;;;;;15.30;99.90;;;;;;5095620;28;19939;-68
2022/08/22 00:03:43;;;;;;;;;;;15.40;99.90;;;;;;5095612;28;20272;-69
2022/08/22 00:06:17;;;;;;;;;;;15.60;99.90;;;;;;5094556;28;19912;-69
2022/08/22 00:08:47;;;;;;;;;;;15.60;99.90;;;;;;5095598;28;19977;-69
2022/08/22 00:11:20;;;;;;;;;;;15.60;99.90;;;;;;5095365;28;20251;-69
2022/08/22 00:13:47;;;;;;;;;;;15.70;99.90;;;;;;5095840;28;19908;-69
2022/08/22 00:16:32;;;;;;;;;;;15.90;99.90;;;;;;5095883;28;19961;-69
2022/08/22 00:19:05;;;;;;;;;;;16.00;99.90;;;;;;5095336;28;19908;-69
2022/08/22 00:21:48;;;;;;;;;;;16.10;99.90;;;;;;5095231;28;19916;-69
2022/08/22 00:24:23;;;;;;;;;;;16.10;99.90;;;;;;5095081;28;19912;-69
2022/08/22 00:27:03;;;;;;;;;;;16.20;99.90;;;;;;5095140;28;19916;-69
2022/08/22 00:29:34;;;;;;;;;;;16.30;99.90;;;;;;5095086;28;19908;-68
2022/08/22 00:32:34;;;;;;;;;;;16.30;99.90;;;;;;5094876;28;19915;-69
2022/08/22 00:35:04;;;;;;;;;;;16.30;99.90;;;;;;5052258;28;20268;-70
2022/08/22 00:37:40;;;;;;;;;;;16.40;99.90;;;;;;5054087;28;19913;-70
2022/08/22 00:40:25;;;;;;;;;;;16.40;99.90;;;;;;5053781;28;19908;-69
2022/08/22 00:42:58;;;;;;;;;;;16.70;99.90;;;;;;5053993;28;19916;-70
2022/08/22 00:45:40;;;;;;;;;;;16.80;99.90;;;;;;5078702;28;19952;-69
2022/08/22 00:48:06;;;;;;;;;;;16.70;99.90;;;;;;5094771;28;20378;-69
2022/08/22 00:50:51;;;;;;;;;;;16.80;99.90;;;;;;5094810;28;19915;-69
2022/08/22 00:53:36;;;;;;;;;;;17.00;99.90;;;;;;5094808;28;19908;-68
2022/08/22 00:56:20;;;;;;;;;;;16.90;99.90;;;;;;5094516;28;19908;-69
2022/08/22 00:58:56;;;;;;;;;;;17.00;99.90;;;;;;5094602;28;19908;-69
2022/08/22 01:01:30;;;;;;;;;;;17.10;99.90;;;;;;5094669;28;19909;-69
2022/08/22 01:04:14;;;;;;;;;;;17.20;99.90;;;;;;5094629;28;20415;-69
2022/08/22 01:06:44;;;;;;;;;;;17.30;99.90;;;;;;5094404;28;19908;-69
2022/08/22 01:09:23;;;;;;;;;;;17.50;99.90;;;;;;5094590;28;19963;-68
2022/08/22 01:11:53;;;;;;;;;;;17.80;99.20;;;;;;5094376;28;20351;-68
2022/08/22 01:14:38;;;;;;;;;;;18.10;98.90;;;;;;5094232;28;19912;-68
2022/08/22 01:17:17;;;;;;;;;;;18.50;98.10;;;;;;5093946;28;20267;-70
2022/08/22 01:19:53;;;;;;;;;;;19.20;96.70;;;;;;5094047;28;19908;-70
2022/08/22 01:22:38;;;;;;;;;;;19.40;96.00;;;;;;5093829;28;20018;-70
2022/08/22 01:25:36;;;;;;;;;;;19.70;95.60;;;;;;5093922;28;19908;-69
2022/08/22 01:28:21;;;;;;;;;;;19.80;95.30;;;;;;5093860;28;20002;-69
2022/08/22 01:31:06;;;;;;;;;;;19.80;95.90;;;;;;5093858;28;20286;-69
2022/08/22 01:33:51;;;;;;;;;;;19.60;95.70;;;;;;5093966;28;19908;-69
2022/08/22 01:36:23;;;;;;;;;;;19.30;95.10;;;;;;5093735;28;20245;-69
2022/08/22 01:39:01;;;;;;;;;;;19.00;95.90;;;;;;5093943;28;19935;-69
2022/08/22 01:41:46;;;;;;;;;;;18.80;95.90;;;;;;5093617;28;19912;-69
2022/08/22 01:44:16;;;;;;;;;;;18.70;95.80;;;;;;5093655;28;19909;-69
2022/08/22 01:47:03;;;;;;;;;;;18.60;96.20;;;;;;5093555;28;19965;-69
2022/08/22 01:49:33;;;;;;;;;;;18.60;96.50;;;;;;5093446;28;19908;-69
2022/08/22 01:52:03;;;;;;;;;;;18.60;96.40;;;;;;5093677;28;19908;-70
2022/08/22 01:54:35;;;;;;;;;;;18.70;96.00;;;;;;5093552;28;20355;-69
2022/08/22 01:57:06;;;;;;;;;;;18.70;95.80;;;;;;5093536;28;19953;-69
2022/08/22 01:59:38;;;;;;;;;;;18.60;96.40;;;;;;5093518;28;19908;-69
2022/08/22 02:02:04;;;;;;;;;;;18.60;96.70;;;;;;5093286;28;19919;-69
2022/08/22 02:04:37;;;;;;;;;;;18.70;96.00;;;;;;5093555;28;20393;-70
2022/08/22 02:07:17;;;;;;;;;;;18.90;95.70;;;;;;5093453;28;20381;-69
2022/08/22 02:10:02;;;;;;;;;;;18.80;96.00;;;;;;5093284;28;19915;-69
2022/08/22 02:12:40;;;;;;;;;;;18.70;95.80;;;;;;5093540;28;20390;-69
2022/08/22 02:15:19;;;;;;;;;;;18.60;96.20;;;;;;5093332;28;19908;-70
2022/08/22 02:18:06;;;;;;;;;;;18.70;96.80;;;;;;5093455;28;19935;-69
2022/08/22 02:20:39;;;;;;;;;;;18.80;96.50;;;;;;5085966;28;19916;-70
2022/08/22 02:23:17;;;;;;;;;;;18.80;96.60;;;;;;5092041;28;20033;-70
2022/08/22 02:25:47;;;;;;;;;;;18.70;96.90;;;;;;5093340;28;19908;-69
2022/08/22 02:28:18;;;;;;;;;;;18.70;96.30;;;;;;5093288;28;19908;-69
2022/08/22 02:31:03;;;;;;;;;;;18.80;95.60;;;;;;5097334;28;19954;-69
2022/08/22 02:33:33;;;;;;;;;;;18.80;95.20;;;;;;5097323;28;19999;-68
2022/08/22 02:36:03;;;;;;;;;;;18.80;94.50;;;;;;5069011;28;19917;-69
2022/08/22 02:38:33;;;;;;;;;;;18.90;95.00;;;;;;5054898;28;19917;-68
2022/08/22 02:41:16;;;;;;;;;;;18.80;94.60;;;;;;5056083;28;19913;-70
2022/08/22 02:43:43;;;;;;;;;;;18.80;94.80;;;;;;5056191;28;19917;-69
2022/08/22 02:46:12;;;;;;;;;;;19.00;94.20;;;;;;5055847;28;19924;-69
2022/08/22 02:48:44;;;;;;;;;;;19.00;94.50;;;;;;5056298;28;19908;-70
2022/08/22 02:51:18;;;;;;;;;;;19.10;94.10;;;;;;5056910;28;20418;-70
2022/08/22 02:54:03;;;;;;;;;;;19.10;94.10;;;;;;5056350;28;19909;-70
2022/08/22 02:56:33;;;;;;;;;;;19.10;94.30;;;;;;5056019;28;19909;-68
2022/08/22 02:59:15;;;;;;;;;;;19.10;94.60;;;;;;5055890;28;19912;-69
2022/08/22 03:01:44;;;;;;;;;;;19.10;94.50;;;;;;5055868;28;19917;-69
2022/08/22 03:04:21;;;;;;;;;;;19.10;94.10;;;;;;5055487;28;19920;-70
2022/08/22 03:07:03;;;;;;;;;;;19.00;94.40;;;;;;5055945;28;20339;-69
2022/08/22 03:09:40;;;;;;;;;;;19.00;94.10;;;;;;5055279;28;19912;-70
2022/08/22 03:12:24;;;;;;;;;;;19.10;94.40;;;;;;5055374;28;20007;-69
2022/08/22 03:15:03;;;;;;;;;;;19.10;94.30;;;;;;5055851;28;19919;-70
2022/08/22 03:17:32;;;;;;;;;;;19.20;94.40;;;;;;5055491;28;19909;-70
2022/08/22 03:19:59;;;;;;;;;;;19.20;94.20;;;;;;5071321;28;19915;-69
2022/08/22 03:22:29;;;;;;;;;;;19.20;94.20;;;;;;5094884;28;20305;-70
2022/08/22 03:25:10;;;;;;;;;;;19.20;93.90;;;;;;5096304;28;19995;-70
2022/08/22 03:27:45;;;;;;;;;;;19.20;93.90;;;;;;5096319;28;19908;-69
2022/08/22 03:30:12;;;;;;;;;;;19.20;94.10;;;;;;5096060;28;19916;-70
2022/08/22 03:32:50;;;;;;;;;;;19.10;94.10;;;;;;5096317;28;19991;-69
2022/08/22 03:35:25;;;;;;;;;;;19.20;94.20;;;;;;5096232;28;19961;-69
2022/08/22 03:37:56;;;;;;;;;;;19.20;93.80;;;;;;5096045;28;19908;-71
2022/08/22 03:40:27;;;;;;;;;;;19.20;94.00;;;;;;5094897;28;19915;-69
2022/08/22 03:43:12;;;;;;;;;;;19.00;94.50;;;;;;5096059;28;19958;-69
2022/08/22 03:45:38;;;;;;;;;;;19.10;93.90;;;;;;5095783;28;19927;-70
2022/08/22 03:48:17;;;;;;;;;;;19.20;94.20;;;;;;5095700;28;19962;-70
2022/08/22 03:51:02;;;;;;;;;;;19.20;93.80;;;;;;5096030;28;20270;-70
2022/08/22 03:53:47;;;;;;;;;;;19.10;93.80;;;;;;5095670;28;19908;-69
2022/08/22 03:56:26;;;;;;;;;;;19.20;93.80;;;;;;5095475;28;19953;-69
2022/08/22 03:59:03;;;;;;;;;;;19.30;94.00;;;;;;5095799;28;19908;-69
2022/08/22 04:01:33;;;;;;;;;;;19.40;93.60;;;;;;5095599;28;20363;-69
2022/08/22 04:04:06;;;;;;;;;;;19.50;93.40;;;;;;5095721;28;19912;-69
2022/08/22 04:06:35;;;;;;;;;;;19.40;93.70;;;;;;5095470;28;19908;-70
2022/08/22 04:09:20;;;;;;;;;;;19.40;93.40;;;;;;5095633;28;19915;-69
2022/08/22 04:11:59;;;;;;;;;;;19.40;93.30;;;;;;5095473;28;19908;-69
2022/08/22 04:14:31;;;;;;;;;;;19.30;93.10;;;;;;5095404;28;20000;-69
2022/08/22 04:16:58;;;;;;;;;;;19.40;92.90;;;;;;5095308;28;19915;-69
2022/08/22 04:19:43;;;;;;;;;;;19.40;93.40;;;;;;5095464;28;19908;-70
2022/08/22 04:22:10;;;;;;;;;;;19.30;93.20;;;;;;5095129;28;19927;-69
2022/08/22 04:24:41;;;;;;;;;;;19.40;93.10;;;;;;5094007;28;19909;-69
2022/08/22 04:27:20;;;;;;;;;;;19.40;92.90;;;;;;5095485;28;19908;-70
2022/08/22 04:29:54;;;;;;;;;;;19.40;93.00;;;;;;5097467;28;19977;-70
2022/08/22 04:32:39;;;;;;;;;;;19.20;92.90;;;;;;5094962;28;19908;-69
2022/08/22 04:35:18;;;;;;;;;;;19.20;93.40;;;;;;5094956;28;19908;-70
2022/08/22 04:37:53;;;;;;;;;;;19.00;93.70;;;;;;5094971;28;19944;-69
2022/08/22 04:40:26;;;;;;;;;;;19.10;93.40;;;;;;5092054;28;19912;-70
2022/08/22 04:43:04;;;;;;;;;;;19.00;93.80;;;;;;5094924;28;19916;-70
2022/08/22 04:45:34;;;;;;;;;;;19.10;93.40;;;;;;5094577;28;19920;-70
2022/08/22 04:48:21;;;;;;;;;;;19.20;93.10;;;;;;5094543;28;19908;-70
2022/08/22 04:51:03;;;;;;;;;;;19.20;93.40;;;;;;5094476;28;19931;-71
2022/08/22 04:53:39;;;;;;;;;;;19.20;93.40;;;;;;5094362;28;19977;-70
2022/08/22 04:56:25;;;;;;;;;;;19.30;93.40;;;;;;5094572;28;19987;-70
2022/08/22 04:58:54;;;;;;;;;;;19.40;93.00;;;;;;5094430;28;20094;-70
2022/08/22 05:01:20;;;;;;;;;;;19.30;93.20;;;;;;5094605;28;20264;-70
2022/08/22 05:03:56;;;;;;;;;;;19.30;93.30;;;;;;5094511;28;20267;-70
2022/08/22 05:06:27;;;;;;;;;;;19.40;93.30;;;;;;5094343;28;19908;-70
2022/08/22 05:08:55;;;;;;;;;;;19.40;93.30;;;;;;5094157;28;19908;-70
2022/08/22 05:11:23;;;;;;;;;;;19.30;93.70;;;;;;5094381;28;19908;-69
2022/08/22 05:13:56;;;;;;;;;;;19.20;93.00;;;;;;5093022;28;19953;-70
2022/08/22 05:16:24;;;;;;;;;;;19.20;93.40;;;;;;5093987;28;19908;-69
2022/08/22 05:19:01;;;;;;;;;;;19.10;93.60;;;;;;5094135;28;19919;-71
2022/08/22 05:21:36;;;;;;;;;;;19.10;93.30;;;;;;5094022;28;19923;-69
2022/08/22 05:24:05;;;;;;;;;;;19.20;93.40;;;;;;5093865;28;20382;-69
2022/08/22 05:26:37;;;;;;;;;;;19.20;93.30;;;;;;5094146;28;19916;-69
2022/08/22 05:29:06;;;;;;;;;;;19.20;93.30;;;;;;5093991;28;19908;-69
2022/08/22 05:31:55;;;;;;;;;;;19.20;93.50;;;;;;5093740;28;19908;-69
2022/08/22 05:34:23;;;;;;;;;;;19.10;93.50;;;;;;5093822;28;19993;-69
2022/08/22 05:36:54;;;;;;;;;;;19.30;92.90;;;;;;5093713;28;19915;-70
2022/08/22 05:39:22;;;;;;;;;;;19.20;93.00;;;;;;5093842;28;20324;-70
2022/08/22 05:41:49;;;;;;;;;;;19.10;93.50;;;;;;5093848;28;19912;-69
2022/08/22 05:44:16;;;;;;;;;;;19.10;93.60;;;;;;5093655;28;19912;-70
2022/08/22 05:47:04;;;;;;;;;;;19.00;93.60;;;;;;5093573;28;19999;-69
2022/08/22 05:49:38;;;;;;;;;;;18.90;93.40;;;;;;5093695;28;19919;-68
2022/08/22 05:52:05;;;;;;;;;;;18.80;93.70;;;;;;5093364;28;19997;-69
2022/08/22 05:54:35;;;;;;;;;;;18.70;93.80;;;;;;5093318;28;20462;-69
2022/08/22 05:57:08;;;;;;;;;;;18.90;93.30;;;;;;5093683;28;19974;-69
2022/08/22 05:59:38;;;;;;;;;;;18.80;93.00;;;;;;5093558;28;19912;-70
2022/08/22 06:02:08;;;;;;;;;;;18.80;93.30;;;;;;5093240;28;19923;-69
2022/08/22 06:04:53;;;;;;;;;;;18.70;93.40;;;;;;5078302;28;20356;-70
2022/08/22 06:07:26;;;;;;;;;;;18.60;93.90;;;;;;5053316;28;19920;-70
2022/08/22 06:10:02;;;;;;;;;;;18.60;93.40;;;;;;5054834;28;19913;-70
2022/08/22 06:12:29;;;;;;;;;;;18.70;93.50;;;;;;5053385;28;19909;-69
2022/08/22 06:14:55;;;;;;;;;;;18.60;93.60;;;;;;5052776;28;19909;-69
2022/08/22 06:17:25;;;;;;;;;;;18.60;93.50;;;;;;5053378;28;20363;-69
2022/08/22 06:19:53;;;;;;;;;;;18.50;93.90;;;;;;5053228;28;19992;-69
2022/08/22 06:22:21;;;;;;;;;;;18.50;93.70;;;;;;5052899;28;19913;-69
2022/08/22 06:24:49;;;;;;;;;;;18.40;93.60;;;;;;5053006;28;19909;-69
2022/08/22 06:27:18;;;;;;;;;;;18.40;93.90;;;;;;5053096;28;20364;-69
2022/08/22 06:29:48;;;;;;;;;;;18.30;93.90;;;;;;5052733;28;20394;-70
2022/08/22 06:32:34;;;;;;;;;;;18.50;94.00;;;;;;5052879;28;19932;-69
2022/08/22 06:35:05;;;;;;;;;;;18.30;93.90;;;;;;5053169;28;19954;-70
2022/08/22 06:37:39;;;;;;;;;;;18.30;94.30;;;;;;5053034;28;19931;-70
2022/08/22 06:40:07;;;;;;;;;;;18.20;94.00;;;;;;5052756;28;19923;-69
2022/08/22 06:42:37;;;;;;;;;;;18.10;94.40;;;;;;5052924;28;19959;-69
2022/08/22 06:45:06;;;;;;;;;;;18.10;94.40;;;;;;5052848;28;19963;-69
2022/08/22 06:47:33;;;;;;;;;;;18.20;94.20;;;;;;5052969;28;19916;-69
2022/08/22 06:50:02;;;;;;;;;;;18.10;94.40;;;;;;5053025;28;19909;-68
2022/08/22 06:52:32;;;;;;;;;;;18.00;94.50;;;;;;5050119;28;19916;-70
2022/08/22 06:55:04;;;;;;;;;;;18.00;94.60;;;;;;5050813;28;19913;-70
2022/08/22 06:57:35;;;;;;;;;;;18.00;95.00;;;;;;5050753;28;19913;-68
2022/08/22 07:00:05;;;;;;;;;;;17.90;94.80;;;;;;5050577;28;19913;-69
2022/08/22 07:02:32;;;;;;;;;;;17.90;94.40;;;;;;5050687;28;19921;-68
2022/08/22 07:04:59;;;;;;;;;;;17.80;94.70;;;;;;5069000;28;19938;-69
2022/08/22 07:07:27;;;;;;;;;;;17.80;94.50;;;;;;5070475;28;19959;-69
2022/08/22 07:09:55;;;;;;;;;;;17.80;94.50;;;;;;5070239;28;20003;-69
2022/08/22 07:12:25;;;;;;;;;;;17.70;94.60;;;;;;5070394;28;19912;-70
2022/08/22 07:14:54;;;;;;;;;;;17.60;94.90;;;;;;5071264;28;19999;-69
2022/08/22 07:17:23;;;;;;;;;;;17.60;95.20;;;;;;5073769;28;19921;-69
2022/08/22 07:19:56;;;;;;;;;;;17.50;95.10;;;;;;5074161;28;19974;-68
2022/08/22 07:22:29;;;;;;;;;;;17.40;95.60;;;;;;5073672;28;19916;-67
2022/08/22 07:24:59;;;;;;;;;;;17.50;95.00;;;;;;5074033;28;19909;-68
2022/08/22 07:27:36;;;;;;;;;;;17.60;94.70;;;;;;5074191;28;19936;-69
2022/08/22 07:30:03;;;;;;;;;;;17.60;94.70;;;;;;5073437;28;19938;-68
2022/08/22 07:32:48;;;;;;;;;;;17.50;94.50;;;;;;5074316;28;19912;-69
2022/08/22 07:35:14;;;;;;;;;;;17.40;94.20;;;;;;5074881;28;19955;-69
2022/08/22 07:37:41;;;;;;;;;;;17.30;94.30;;;;;;5073876;28;20007;-68
2022/08/22 07:40:08;;;;;;;;;;;17.30;94.30;;;;;;5106183;28;19943;-69
2022/08/22 07:42:44;;;;;;;;;;;17.30;94.80;;;;;;5073265;28;19916;-69
2022/08/22 07:45:14;;;;;;;;;;;17.20;94.80;;;;;;5073256;28;20015;-69
2022/08/22 07:47:49;;;;;;;;;;;17.00;95.50;;;;;;5073671;28;20300;-69
2022/08/22 07:50:18;;;;;;;;;;;17.00;95.20;;;;;;5073269;28;19915;-69
2022/08/22 07:52:46;;;;;;;;;;;16.90;94.90;;;;;;5073304;28;19938;-70
2022/08/22 07:55:12;;;;;;;;;;;16.90;95.20;;;;;;5073131;28;19916;-68
2022/08/22 07:57:42;;;;;;;;;;;16.90;95.30;;;;;;5073296;28;19958;-69
2022/08/22 08:00:13;;;;;;;;;;;16.80;95.70;;;;;;5073243;28;20625;-69
2022/08/22 08:02:47;;;;;;;;;;;16.80;95.60;;;;;;5073246;28;20417;-70
2022/08/22 08:05:17;;;;;;;;;;;16.80;95.20;;;;;;5069138;28;19909;-70
2022/08/22 08:07:45;;;;;;;;;;;16.70;95.20;;;;;;5052842;28;19963;-69
2022/08/22 08:10:15;;;;;;;;;;;16.70;95.40;;;;;;5052801;28;19913;-70
2022/08/22 08:12:48;;;;;;;;;;;16.70;95.30;;;;;;5053107;28;19955;-69
2022/08/22 08:15:19;;;;;;;;;;;16.70;95.20;;;;;;5051285;28;19909;-69
2022/08/22 08:17:48;;;;;;;;;;;16.70;95.10;;;;;;5053045;28;19920;-69
2022/08/22 08:20:16;;;;;;;;;;;16.70;94.70;;;;;;5052757;28;19991;-69
2022/08/22 08:22:44;;;;;;;;;;;16.70;94.90;;;;;;5052037;28;20341;-69
2022/08/22 08:25:18;;;;;;;;;;;16.70;94.60;;;;;;5052787;28;19915;-69
2022/08/22 08:30:40;;;;;;;;;;;16.60;95.30;;;;;;5052221;28;19939;-69
2022/08/22 08:33:07;;;;;;;;;;;16.50;95.70;;;;;;5052489;28;19958;-68
2022/08/22 08:35:37;;;;;;;;;;;16.40;95.50;;;;;;5052307;28;19909;-68
2022/08/22 08:38:14;;;;;;;;;;;16.30;95.80;;;;;;5052389;28;19944;-68
2022/08/22 08:41:10;;;;;;;;;;;16.30;96.00;;;;;;5052549;28;19920;-69
2022/08/22 08:43:49;;;;;;;;;;;16.20;95.70;;;;;;5052348;28;19920;-68
2022/08/22 08:46:19;;;;;;;;;;;16.10;95.90;;;;;;5051507;28;19920;-69
2022/08/22 08:49:04;;;;;;;;;;;16.00;96.00;;;;;;5052157;28;19917;-69
2022/08/22 08:51:37;;;;;;;;;;;16.00;95.50;;;;;;5052258;28;19913;-69
2022/08/22 08:54:30;;;;;;;;;;;16.10;95.50;;;;;;5052503;28;19920;-69
2022/08/22 08:57:15;;;;;;;;;;;16.10;95.70;;;;;;5043579;28;20264;-70
2022/08/22 08:59:45;;;;;;;;;;;16.10;95.50;;;;;;5051684;28;19908;-68
2022/08/22 09:02:19;;;;;;;;;;;16.00;95.90;;;;;;5051990;28;19912;-68
2022/08/22 09:04:46;;;;;;;;;;;16.00;96.20;;;;;;5054178;28;19924;-68
2022/08/22 09:07:31;;;;;;;;;;;15.90;96.30;;;;;;5054181;28;19909;-69
2022/08/22 09:10:23;;;;;;;;;;;15.90;96.50;;;;;;5054280;28;20070;-68
2022/08/22 09:12:59;;;;;;;;;;;15.90;96.20;;;;;;5054232;28;19975;-69
2022/08/22 09:15:25;;;;;;;;;;;15.90;96.20;;;;;;5053785;28;19916;-69
2022/08/22 09:18:02;;;;;;;;;;;15.90;96.40;;;;;;5054201;28;19909;-70
2022/08/22 09:20:46;;;;;;;;;;;15.90;96.20;;;;;;5053981;28;19912;-69
2022/08/22 09:23:19;;;;;;;;;;;15.80;96.40;;;;;;5053454;28;20350;-69
2022/08/22 09:25:51;;;;;;;;;;;15.70;96.40;;;;;;5053836;28;19935;-68
2022/08/22 09:28:37;;;;;;;;;;;15.70;96.50;;;;;;5052217;28;20235;-70
2022/08/22 09:31:22;;;;;;;;;;;15.70;97.00;;;;;;5053550;28;19933;-69
2022/08/22 09:33:48;;;;;;;;;;;15.70;96.60;;;;;;5053649;28;19920;-69
2022/08/22 09:36:24;;;;;;;;;;;15.70;96.20;;;;;;5053460;28;19908;-69
2022/08/22 09:38:55;;;;;;;;;;;15.70;96.50;;;;;;5052668;28;19913;-69
2022/08/22 09:41:36;;;;;;;;;;;15.60;96.70;;;;;;5053477;28;19916;-69
2022/08/22 09:44:09;;;;;;;;;;;15.60;96.90;;;;;;5052602;28;19924;-69
2022/08/22 09:46:56;;;;;;;;;;;15.50;96.80;;;;;;5053399;28;20011;-69
2022/08/22 09:49:43;;;;;;;;;;;15.50;96.80;;;;;;5053346;28;20355;-68
2022/08/22 09:52:16;;;;;;;;;;;15.50;96.00;;;;;;5049154;28;20367;-68
2022/08/22 09:54:45;;;;;;;;;;;15.60;96.90;;;;;;5053422;28;19913;-69
2022/08/22 09:57:17;;;;;;;;;;;15.60;95.90;;;;;;5053238;28;19908;-69
2022/08/22 10:00:08;;;;;;;;;;;15.60;96.20;;;;;;5052860;28;19908;-68
2022/08/22 10:02:44;;;;;;;;;;;15.60;96.40;;;;;;5050446;28;19912;-68
2022/08/22 10:05:16;;;;;;;;;;;15.60;96.20;;;;;;5053258;28;19917;-69
2022/08/22 10:07:55;;;;;;;;;;;15.60;96.20;;;;;;5052814;28;19909;-69
2022/08/22 10:10:23;;;;;;;;;;;15.60;96.30;;;;;;5053029;28;19935;-68
2022/08/22 10:12:54;;;;;;;;;;;15.60;95.80;;;;;;5053197;28;19955;-70
2022/08/22 10:15:21;;;;;;;;;;;15.50;95.30;;;;;;5052616;28;20391;-69
2022/08/22 10:18:05;;;;;;;;;;;15.60;95.20;;;;;;5053224;28;19940;-69
2022/08/22 10:20:47;;;;;;;;;;;15.60;95.60;;;;;;5053230;28;19909;-69
2022/08/22 10:23:16;;;;;;;;;;;15.60;95.70;;;;;;5052980;28;19960;-70
2022/08/22 10:25:48;;;;;;;;;;;15.50;96.10;;;;;;5051675;28;20340;-69
2022/08/22 10:28:34;;;;;;;;;;;15.50;95.90;;;;;;5050277;28;19936;-69
2022/08/22 10:31:09;;;;;;;;;;;15.60;95.60;;;;;;5049874;28;20290;-68
2022/08/22 10:33:43;;;;;;;;;;;15.70;95.60;;;;;;5050857;28;20159;-69
2022/08/22 10:36:12;;;;;;;;;;;15.60;96.10;;;;;;5050483;28;20035;-69
2022/08/22 10:38:41;;;;;;;;;;;15.60;96.30;;;;;;5050278;28;19912;-69
2022/08/22 10:41:13;;;;;;;;;;;15.50;96.10;;;;;;5050970;28;19931;-68
2022/08/22 10:43:40;;;;;;;;;;;15.50;96.90;;;;;;5050850;28;20303;-68
2022/08/22 10:46:11;;;;;;;;;;;15.40;96.20;;;;;;5050538;28;20327;-68
2022/08/22 10:48:48;;;;;;;;;;;15.40;96.40;;;;;;5082888;28;20421;-68
2022/08/22 10:51:18;;;;;;;;;;;15.40;96.90;;;;;;5054190;28;19920;-69
2022/08/22 10:53:55;;;;;;;;;;;15.40;96.80;;;;;;5054230;28;19916;-69
2022/08/22 10:56:38;;;;;;;;;;;15.40;96.40;;;;;;5053712;28;19912;-69
2022/08/22 10:59:25;;;;;;;;;;;15.50;96.60;;;;;;5054582;28;19913;-68
2022/08/22 11:02:10;;;;;;;;;;;15.50;96.20;;;;;;5054321;28;19909;-68
2022/08/22 11:04:54;;;;;;;;;;;15.50;96.20;;;;;;5054341;28;19909;-68
2022/08/22 11:07:39;;;;;;;;;;;15.40;96.30;;;;;;5054205;28;20390;-68
2022/08/22 11:10:14;;;;;;;;;;;15.50;96.60;;;;;;5053633;28;19920;-68
2022/08/22 11:12:49;;;;;;;;;;;15.50;96.30;;;;;;5054393;28;19920;-69
2022/08/22 11:15:17;;;;;;;;;;;15.50;96.40;;;;;;5054318;28;20032;-69
2022/08/22 11:17:56;;;;;;;;;;;15.50;96.70;;;;;;5053847;28;19908;-68
2022/08/22 11:20:25;;;;;;;;;;;15.50;96.40;;;;;;5054008;28;19909;-68
2022/08/22 11:23:10;;;;;;;;;;;15.50;96.60;;;;;;5053921;28;19917;-68
2022/08/22 11:25:40;;;;;;;;;;;15.60;96.30;;;;;;5053557;28;19909;-68
2022/08/22 11:28:07;;;;;;;;;;;15.60;96.60;;;;;;5054292;28;20007;-68
2022/08/22 11:30:33;;;;;;;;;;;15.60;96.50;;;;;;5053837;28;19913;-68
2022/08/22 11:33:12;;;;;;;;;;;15.70;96.40;;;;;;5053559;28;20334;-68
2022/08/22 11:35:49;;;;;;;;;;;15.70;96.30;;;;;;5053885;28;19913;-68
2022/08/22 11:38:38;;;;;;;;;;;15.70;96.30;;;;;;5053587;28;19999;-68
2022/08/22 11:41:11;;;;;;;;;;;15.70;96.20;;;;;;5053178;28;20015;-68
2022/08/22 11:43:50;;;;;;;;;;;15.70;96.30;;;;;;5053530;28;19917;-68
2022/08/22 11:46:19;;;;;;;;;;;15.70;96.30;;;;;;5053180;28;19966;-69
2022/08/22 11:49:05;;;;;;;;;;;15.70;96.60;;;;;;5053567;28;19921;-69
2022/08/22 11:51:31;;;;;;;;;;;15.70;96.20;;;;;;5053246;28;19963;-69
2022/08/22 11:54:10;;;;;;;;;;;15.70;96.20;;;;;;5055595;28;19912;-69
2022/08/22 11:56:36;;;;;;;;;;;15.80;96.80;;;;;;5055486;28;19994;-69
2022/08/22 11:59:12;;;;;;;;;;;15.80;96.10;;;;;;5055562;28;19909;-69
2022/08/22 12:02:08;;;;;;;;;;;15.80;96.40;;;;;;5054554;28;19916;-69
2022/08/22 12:04:40;;;;;;;;;;;15.80;96.10;;;;;;5050618;28;19916;-69
2022/08/22 12:07:30;;;;;;;;;;;15.80;96.20;;;;;;5055236;28;19931;-69
2022/08/22 12:10:09;;;;;;;;;;;15.80;96.60;;;;;;5051795;28;20042;-68
2022/08/22 12:12:54;;;;;;;;;;;15.70;97.10;;;;;;5055256;28;19909;-68
2022/08/22 12:15:39;;;;;;;;;;;15.70;97.50;;;;;;5055274;28;19970;-68
2022/08/22 12:18:23;;;;;;;;;;;15.70;96.80;;;;;;5054959;28;19962;-68
2022/08/22 12:21:05;;;;;;;;;;;15.70;96.60;;;;;;5055046;28;20363;-69
2022/08/22 12:23:44;;;;;;;;;;;15.70;96.80;;;;;;5055086;28;20382;-68
2022/08/22 12:26:14;;;;;;;;;;;15.70;96.20;;;;;;5054494;28;20429;-68
2022/08/22 12:28:41;;;;;;;;;;;15.70;96.50;;;;;;5053611;28;20322;-68
2022/08/22 12:31:33;;;;;;;;;;;15.70;96.50;;;;;;5055203;28;20347;-68
2022/08/22 12:34:10;;;;;;;;;;;15.70;96.60;;;;;;5054951;28;19992;-68
2022/08/22 12:36:57;;;;;;;;;;;15.60;96.70;;;;;;5054627;28;19912;-68
2022/08/22 12:39:41;;;;;;;;;;;15.50;97.10;;;;;;5054006;28;20411;-68
2022/08/22 12:42:44;;;;;;;;;;;15.50;96.20;;;;;;5054460;28;19917;-68
2022/08/22 12:45:26;;;;;;;;;;;15.50;96.50;;;;;;5032406;28;20283;-68
2022/08/22 12:48:08;;;;;;;;;;;15.50;96.50;;;;;;5052599;28;20323;-69
2022/08/22 12:50:44;;;;;;;;;;;15.50;96.50;;;;;;5054478;28;19916;-68
2022/08/22 12:53:17;;;;;;;;;;;15.50;97.20;;;;;;5054560;28;19913;-68
2022/08/22 12:55:49;;;;;;;;;;;15.40;97.20;;;;;;5053789;28;19991;-68
2022/08/22 12:58:32;;;;;;;;;;;15.40;97.00;;;;;;5054254;28;19908;-68
2022/08/22 13:01:01;;;;;;;;;;;15.30;97.50;;;;;;5054453;28;19955;-69
2022/08/22 13:03:34;;;;;;;;;;;15.40;96.60;;;;;;5054153;28;20421;-68
2022/08/22 13:06:26;;;;;;;;;;;15.40;96.80;;;;;;5054135;28;19912;-69
2022/08/22 13:08:53;;;;;;;;;;;15.50;96.30;;;;;;5048791;28;20274;-68
2022/08/22 13:11:21;;;;;;;;;;;15.50;96.70;;;;;;5072043;28;19908;-68
2022/08/22 13:13:55;;;;;;;;;;;15.50;96.50;;;;;;5073965;28;20339;-68
2022/08/22 13:16:23;;;;;;;;;;;15.50;96.80;;;;;;5073982;28;20274;-68
2022/08/22 13:18:52;;;;;;;;;;;15.50;96.90;;;;;;5072783;28;19915;-68
2022/08/22 13:21:22;;;;;;;;;;;15.40;96.90;;;;;;5073926;28;19908;-68
2022/08/22 13:23:53;;;;;;;;;;;15.50;96.80;;;;;;5073840;28;19924;-68
2022/08/22 13:26:21;;;;;;;;;;;15.50;96.90;;;;;;5073658;28;19913;-68
2022/08/22 13:28:56;;;;;;;;;;;15.50;96.50;;;;;;5073900;28;20345;-68
2022/08/22 13:31:23;;;;;;;;;;;15.40;96.80;;;;;;5073907;28;19909;-68
2022/08/22 13:33:51;;;;;;;;;;;15.30;97.00;;;;;;5073887;28;19909;-68
2022/08/22 13:36:19;;;;;;;;;;;15.30;96.90;;;;;;5073382;28;19915;-68
2022/08/22 13:38:52;;;;;;;;;;;15.30;97.70;;;;;;5073851;28;20003;-67
2022/08/22 13:41:24;;;;;;;;;;;15.20;97.70;;;;;;5073791;28;19995;-68
2022/08/22 13:43:54;;;;;;;;;;;15.10;97.60;;;;;;5073922;28;19964;-69
2022/08/22 13:46:28;;;;;;;;;;;15.00;98.10;;;;;;5073384;28;19928;-69
2022/08/22 13:48:57;;;;;;;;;;;15.00;98.50;;;;;;5073867;28;20098;-69
2022/08/22 13:51:30;;;;;;;;;;;14.90;98.20;;;;;;5072384;28;19915;-68
2022/08/22 13:53:56;;;;;;;;;;;14.90;98.10;;;;;;5073675;28;19908;-68
2022/08/22 13:56:26;;;;;;;;;;;15.00;98.50;;;;;;5073359;28;19909;-69
2022/08/22 13:58:55;;;;;;;;;;;15.00;98.30;;;;;;5106172;28;20370;-69
2022/08/22 14:01:34;;;;;;;;;;;15.00;98.10;;;;;;5073435;28;19909;-69
2022/08/22 14:04:19;;;;;;;;;;;15.00;98.30;;;;;;5073298;28;20023;-68
2022/08/22 14:06:50;;;;;;;;;;;15.00;98.40;;;;;;5073199;28;19934;-71
2022/08/22 14:09:35;;;;;;;;;;;15.00;98.40;;;;;;5073393;28;20275;-69
2022/08/22 14:12:07;;;;;;;;;;;15.00;98.20;;;;;;5073228;28;19915;-69
2022/08/22 14:14:35;;;;;;;;;;;15.00;98.80;;;;;;5073572;28;20305;-69
2022/08/22 14:17:03;;;;;;;;;;;15.00;98.50;;;;;;5073265;28;19945;-69
2022/08/22 14:19:35;;;;;;;;;;;15.00;98.70;;;;;;5073392;28;20280;-68
2022/08/22 14:22:27;;;;;;;;;;;15.00;98.40;;;;;;5072850;28;19913;-68
2022/08/22 14:25:00;;;;;;;;;;;15.00;98.60;;;;;;5072941;28;19988;-68
2022/08/22 14:27:29;;;;;;;;;;;15.10;98.50;;;;;;5077285;28;19913;-69
2022/08/22 14:30:00;;;;;;;;;;;15.00;98.30;;;;;;5077362;28;19909;-69
2022/08/22 14:32:26;;;;;;;;;;;15.10;98.50;;;;;;5077232;28;19948;-69
2022/08/22 14:35:11;;;;;;;;;;;15.10;98.80;;;;;;5077315;28;20371;-69
2022/08/22 14:37:40;;;;;;;;;;;15.10;98.40;;;;;;5077199;28;20252;-68
2022/08/22 14:40:12;;;;;;;;;;;15.10;99.10;;;;;;5076776;28;19935;-69
2022/08/22 14:42:51;;;;;;;;;;;15.10;98.40;;;;;;5109697;28;19956;-69
2022/08/22 14:45:24;;;;;;;;;;;15.00;98.40;;;;;;5076782;28;19917;-68
2022/08/22 14:48:03;;;;;;;;;;;15.00;98.30;;;;;;5076973;28;19913;-69
2022/08/22 14:50:39;;;;;;;;;;;15.00;98.50;;;;;;5076791;28;20252;-69
2022/08/22 14:53:09;;;;;;;;;;;14.90;99.00;;;;;;5076829;28;19909;-69
2022/08/22 14:55:37;;;;;;;;;;;14.90;98.50;;;;;;5076782;28;19908;-69
2022/08/22 14:58:24;;;;;;;;;;;14.90;98.90;;;;;;5076487;28;19915;-69
2022/08/22 15:00:52;;;;;;;;;;;14.90;98.70;;;;;;5076512;28;19913;-68
2022/08/22 15:03:24;;;;;;;;;;;14.80;98.90;;;;;;5076505;28;20389;-68